Time;durP1;ratioP1;P1;durP2;ratioP2;P2;SDS_P1;SDS_P2;PMS_P1;PMS_P2;Temp;Humidity;BMP_temperature;BMP_pressure;BME280_temperature;BME280_humidity;BME280_pressure;Samples;Min_cycle;Max_cycle;Signal;HPM_P1;HPM_P2
2022/02/09 03:59:19;;;;;;;4.00;1.08;;;10.40;81.20;;;;;;4742115;30;20047;-82
2022/02/09 04:01:45;;;;;;;6.00;1.10;;;10.30;81.00;;;;;;4714815;30;20355;-83
2022/02/09 04:04:11;;;;;;;8.35;1.67;;;10.30;81.30;;;;;;4743817;30;20074;-83
2022/02/09 04:06:38;;;;;;;7.33;1.37;;;10.30;81.40;;;;;;4758657;30;20032;-82
2022/02/09 04:09:07;;;;;;;5.13;1.08;;;10.30;81.50;;;;;;4743629;30;20289;-82
2022/02/09 04:11:48;;;;;;;2.42;1.02;;;10.20;81.30;;;;;;4729205;30;20044;-83
2022/02/09 04:38:35;;;;;;;6.60;1.70;;;10.10;82.00;;;;;;4730953;30;20056;-82
2022/02/09 05:01:59;;;;;;;4.07;1.33;;;9.90;83.00;;;;;;4734968;30;20040;-81
2022/02/09 05:28:19;;;;;;;7.97;2.00;;;9.80;83.70;;;;;;4734735;30;20055;-81
2022/02/09 05:30:56;;;;;;;3.80;1.50;;;9.80;83.70;;;;;;4748856;30;20347;-82
2022/02/09 05:33:28;;;;;;;4.75;1.52;;;9.80;83.70;;;;;;4748546;30;20036;-81
2022/02/09 05:35:54;;;;;;;4.95;1.73;;;9.70;83.80;;;;;;4702167;30;20235;-81
2022/02/09 05:38:20;;;;;;;4.78;1.77;;;9.70;83.80;;;;;;4702643;30;20033;-82
2022/02/09 05:40:46;;;;;;;6.25;1.40;;;9.80;83.70;;;;;;4704529;30;20429;-82
2022/02/09 05:43:13;;;;;;;4.32;1.40;;;9.70;83.50;;;;;;4731323;30;20100;-82
2022/02/09 05:51:02;;;;;;;4.05;1.42;;;9.70;83.20;;;;;;4716703;30;20044;-82
2022/02/09 05:53:42;;;;;;;8.63;1.67;;;9.80;83.20;;;;;;4717320;30;20041;-82
2022/02/09 05:56:20;;;;;;;5.43;1.70;;;9.80;83.00;;;;;;4731268;30;20098;-82
2022/02/09 05:59:03;;;;;;;7.53;1.30;;;9.80;82.80;;;;;;4719729;30;20032;-83
2022/02/09 06:01:28;;;;;;;4.07;2.03;;;9.80;82.70;;;;;;4728378;30;20100;-83
2022/02/09 06:03:54;;;;;;;5.22;1.70;;;9.90;82.70;;;;;;4731153;30;20049;-83
2022/02/09 06:06:20;;;;;;;3.78;1.10;;;9.80;83.10;;;;;;4702376;30;20373;-82
2022/02/09 06:08:46;;;;;;;3.72;1.15;;;9.80;82.40;;;;;;4702213;30;20135;-82
2022/02/09 06:11:24;;;;;;;1.85;1.10;;;9.90;82.40;;;;;;4716717;30;20036;-83
2022/02/09 06:19:44;;;;;;;4.40;1.20;;;9.90;82.00;;;;;;4735544;30;20039;-83
2022/02/09 06:22:10;;;;;;;2.95;1.48;;;9.90;81.90;;;;;;4747854;30;20056;-82
2022/02/09 06:24:38;;;;;;;5.28;1.55;;;9.90;81.90;;;;;;4747726;30;20071;-83
2022/02/09 06:27:05;;;;;;;3.00;1.50;;;9.90;81.80;;;;;;4747611;30;20235;-82
2022/02/09 06:29:31;;;;;;;5.70;1.63;;;10.00;81.60;;;;;;4756982;30;20028;-82
2022/02/09 06:31:57;;;;;;;4.03;1.80;;;10.00;81.50;;;;;;4749298;30;20036;-83
2022/02/09 06:34:23;;;;;;;4.05;1.58;;;10.00;81.40;;;;;;4747208;30;20058;-82
2022/02/09 06:36:58;;;;;;;8.13;1.58;;;10.00;81.20;;;;;;4747345;30;20036;-83
2022/02/09 06:39:25;;;;;;;5.85;1.60;;;10.00;81.30;;;;;;4731359;30;20033;-83
2022/02/09 06:42:00;;;;;;;8.82;1.70;;;10.00;81.40;;;;;;4744332;30;20123;-82
2022/02/09 06:44:30;;;;;;;3.50;2.05;;;10.00;81.40;;;;;;4734558;30;20043;-83
2022/02/09 06:46:56;;;;;;;4.13;1.40;;;10.00;81.30;;;;;;4760895;30;20115;-83
2022/02/09 06:49:22;;;;;;;9.00;5.20;;;10.10;81.40;;;;;;4744849;30;20040;-83
2022/02/09 06:51:48;;;;;;;6.32;1.60;;;10.00;81.30;;;;;;4714557;30;20056;-82
2022/02/09 06:54:29;;;;;;;6.13;2.20;;;10.10;81.30;;;;;;4736818;30;20098;-82
2022/02/09 06:59:28;;;;;;;8.93;1.80;;;10.10;81.50;;;;;;4728416;30;20025;-82
2022/02/09 07:01:55;;;;;;;2.80;1.13;;;10.10;81.20;;;;;;4715368;30;20056;-82
2022/02/09 07:04:21;;;;;;;2.65;1.08;;;10.20;81.00;;;;;;4728484;30;20056;-82
2022/02/09 07:06:47;;;;;;;5.35;1.38;;;10.20;80.70;;;;;;4712726;30;20033;-82
2022/02/09 07:09:13;;;;;;;5.53;1.20;;;10.30;80.70;;;;;;4716947;30;20394;-82
2022/02/09 07:11:38;;;;;;;10.55;1.75;;;10.30;80.30;;;;;;4714766;30;20262;-82
2022/02/09 07:14:05;;;;;;;3.85;1.38;;;10.30;80.00;;;;;;4726171;30;20041;-82
2022/02/09 07:16:31;;;;;;;2.80;1.48;;;10.30;80.10;;;;;;4714900;30;20063;-81
2022/02/09 07:18:57;;;;;;;5.95;1.40;;;10.40;80.30;;;;;;4729072;30;20033;-81
2022/02/09 07:21:27;;;;;;;3.45;1.83;;;10.40;80.00;;;;;;4700624;30;20036;-82
2022/02/09 07:23:56;;;;;;;4.03;1.80;;;10.50;80.00;;;;;;4701436;30;20032;-82
2022/02/09 07:28:51;;;;;;;25.33;4.25;;;10.30;79.80;;;;;;4743276;30;20056;-82
2022/02/09 07:31:17;;;;;;;9.15;1.73;;;10.40;79.70;;;;;;4714338;30;20276;-82
2022/02/09 07:33:44;;;;;;;4.03;1.42;;;10.50;79.80;;;;;;4728760;30;20035;-82
2022/02/09 07:36:12;;;;;;;7.20;1.45;;;10.50;79.70;;;;;;4728484;30;20067;-82
2022/02/09 07:38:40;;;;;;;2.95;1.52;;;10.50;79.50;;;;;;4714389;30;20228;-82
2022/02/09 07:41:06;;;;;;;4.70;1.50;;;10.50;79.40;;;;;;4743340;30;20032;-82
2022/02/09 07:49:03;;;;;;;5.85;1.67;;;10.50;79.60;;;;;;4730537;30;20291;-82
2022/02/09 07:54:00;;;;;;;7.40;2.53;;;10.40;79.80;;;;;;4742395;30;20082;-82
2022/02/09 07:56:27;;;;;;;6.82;2.60;;;10.50;79.60;;;;;;4728296;30;20037;-82
2022/02/09 07:58:53;;;;;;;6.90;2.33;;;10.60;79.30;;;;;;4728191;30;20041;-82
2022/02/09 08:01:19;;;;;;;10.10;3.10;;;10.80;79.40;;;;;;4713734;30;20092;-82
2022/02/09 08:03:45;;;;;;;4.93;1.80;;;10.80;78.40;;;;;;4760858;30;20147;-82
2022/02/09 08:06:12;;;;;;;3.13;1.58;;;10.90;78.00;;;;;;4728117;30;20040;-82
2022/02/09 08:08:41;;;;;;;2.83;1.57;;;10.90;77.70;;;;;;4742628;30;20052;-83
2022/02/09 08:33:17;;;;;;;1.92;1.10;;;11.40;75.50;;;;;;4734532;30;20086;-83
2022/02/09 08:35:47;;;;;;;4.82;1.10;;;11.40;75.10;;;;;;4743675;30;20232;-83
2022/02/09 08:38:14;;;;;;;4.32;1.17;;;11.40;75.00;;;;;;4742571;30;20045;-83
2022/02/09 08:40:41;;;;;;;5.00;1.48;;;11.50;75.20;;;;;;4755773;30;20077;-83
2022/02/09 08:43:09;;;;;;;2.80;1.27;;;11.50;75.00;;;;;;4739023;30;20324;-83
2022/02/09 08:45:35;;;;;;;2.53;1.20;;;11.50;74.30;;;;;;4728331;30;20232;-83
2022/02/09 08:48:01;;;;;;;5.65;1.00;;;11.50;74.50;;;;;;4726261;30;20102;-83
2022/02/09 08:50:28;;;;;;;1.48;0.95;;;11.50;74.50;;;;;;4739123;30;20303;-84
2022/02/09 08:52:54;;;;;;;2.93;0.80;;;11.60;74.30;;;;;;4712182;30;20044;-84
2022/02/09 08:55:20;;;;;;;2.05;1.00;;;11.70;74.00;;;;;;4711370;30;20116;-83
2022/02/09 08:57:47;;;;;;;2.47;1.17;;;11.70;73.70;;;;;;4724006;30;20048;-84
2022/02/09 09:00:37;;;;;;;4.70;1.10;;;11.80;74.20;;;;;;4711631;30;20052;-84
2022/02/09 09:05:46;;;;;;;5.20;1.50;;;11.80;73.10;;;;;;4724371;30;20122;-85
2022/02/09 09:08:36;;;;;;;3.80;1.25;;;11.80;73.10;;;;;;4739555;30;20039;-85
2022/02/09 09:19:22;;;;;;;3.80;1.25;;;11.90;73.20;;;;;;4739498;30;20032;-85
2022/02/09 10:05:46;;;;;;;35.50;18.23;;;13.40;68.30;;;;;;4738923;30;20036;-84
2022/02/09 10:34:08;;;;;;;2.88;1.20;;;14.20;65.00;;;;;;4728999;30;20052;-83
2022/02/09 10:36:54;;;;;;;6.85;1.55;;;14.10;64.60;;;;;;4714467;30;20036;-83
2022/02/09 10:39:26;;;;;;;3.97;2.58;;;14.10;65.40;;;;;;4710587;30;20047;-83
2022/02/09 10:42:17;;;;;;;4.50;2.28;;;14.20;65.00;;;;;;4725913;30;20366;-83
2022/02/09 10:44:50;;;;;;;4.57;3.00;;;14.20;64.30;;;;;;4727038;30;20045;-82
2022/02/09 10:47:27;;;;;;;6.97;2.65;;;14.10;65.40;;;;;;4728200;30;20213;-83
2022/02/09 10:50:19;;;;;;;5.13;2.03;;;14.20;65.40;;;;;;4713737;30;20051;-83
2022/02/09 10:52:49;;;;;;;4.30;2.10;;;14.40;64.80;;;;;;4729134;30;20037;-83
2022/02/09 10:55:31;;;;;;;4.78;1.77;;;14.50;64.30;;;;;;4728799;30;20077;-83
2022/02/09 10:57:58;;;;;;;5.85;1.60;;;14.40;63.30;;;;;;4728416;30;20051;-83
2022/02/09 11:00:25;;;;;;;3.45;1.30;;;14.50;63.30;;;;;;4687987;30;20066;-82
2022/02/09 11:02:51;;;;;;;8.95;1.55;;;14.50;63.20;;;;;;4711361;30;20037;-82
2022/02/09 11:05:19;;;;;;;6.63;1.40;;;14.40;63.40;;;;;;4714009;30;20267;-83
2022/02/09 11:07:51;;;;;;;5.45;1.35;;;14.50;62.90;;;;;;4708948;30;20044;-82
2022/02/09 11:10:17;;;;;;;6.18;1.70;;;14.50;62.70;;;;;;4714335;30;20057;-82
2022/02/09 11:12:43;;;;;;;6.82;1.65;;;14.50;62.90;;;;;;4729245;30;20028;-83
2022/02/09 11:15:18;;;;;;;3.88;1.27;;;14.60;62.60;;;;;;4720419;30;20056;-82
2022/02/09 11:17:48;;;;;;;5.25;1.75;;;14.60;62.20;;;;;;4741044;30;20063;-82
2022/02/09 11:20:18;;;;;;;6.15;1.70;;;14.50;62.40;;;;;;4729003;30;20095;-82
2022/02/09 11:22:45;;;;;;;5.63;1.70;;;14.50;62.60;;;;;;4728660;30;20037;-82
2022/02/09 11:25:16;;;;;;;;;;;14.50;62.30;;;;;;4736364;30;20139;-83
2022/02/09 11:27:56;;;;;;;3.35;1.30;;;14.40;62.30;;;;;;4743072;30;20157;-82
2022/02/09 11:30:40;;;;;;;3.42;1.45;;;14.50;62.60;;;;;;4742359;30;20048;-82
2022/02/09 11:36:19;;;;;;;3.08;1.50;;;14.60;62.30;;;;;;4742316;30;20037;-82
2022/02/09 11:38:50;;;;;;;4.65;1.27;;;14.60;61.60;;;;;;4740888;30;20032;-82
2022/02/09 11:41:21;;;;;;;4.85;1.95;;;14.60;60.20;;;;;;4729710;30;20108;-82
2022/02/09 11:43:58;;;;;;;3.88;1.40;;;14.50;60.30;;;;;;4700872;30;20155;-82
2022/02/09 11:46:48;;;;;;;3.10;1.20;;;14.50;61.10;;;;;;4729867;30;20229;-82
2022/02/09 12:09:35;;;;;;;3.58;1.45;;;14.50;60.80;;;;;;4759529;30;20048;-82
2022/02/09 12:12:06;;;;;;;3.22;1.17;;;14.50;61.00;;;;;;4744815;30;20048;-82
2022/02/09 12:17:49;;;;;;;6.82;1.48;;;14.50;60.30;;;;;;4759682;30;20048;-82
2022/02/09 12:25:42;;;;;;;5.78;1.17;;;14.60;60.50;;;;;;4759908;30;20233;-83
2022/02/09 12:28:17;;;;;;;3.38;1.25;;;14.70;59.60;;;;;;4759503;30;20079;-83
2022/02/09 12:30:44;;;;;;;5.68;1.60;;;14.60;59.70;;;;;;4744974;30;20119;-82
2022/02/09 12:33:23;;;;;;;2.47;1.13;;;14.60;60.00;;;;;;4744635;30;20351;-82
2022/02/09 12:35:51;;;;;;;5.13;1.83;;;14.50;59.80;;;;;;4728314;30;20044;-82
2022/02/09 12:38:30;;;;;;;3.50;1.40;;;14.50;59.70;;;;;;4721557;30;20240;-83
2022/02/09 12:41:31;;;;;;;6.80;1.50;;;14.50;59.70;;;;;;4712856;30;20036;-82
2022/02/09 12:44:04;;;;;;;3.70;2.10;;;14.50;59.40;;;;;;4726971;30;20052;-82
2022/02/09 12:46:32;;;;;;;8.52;2.00;;;14.60;60.00;;;;;;4709494;30;20056;-82
2022/02/09 12:49:14;;;;;;;5.15;1.45;;;14.60;59.80;;;;;;4727044;30;20375;-83
2022/02/09 12:51:43;;;;;;;10.95;2.17;;;14.60;60.00;;;;;;4727232;30;20045;-82
2022/02/09 12:54:10;;;;;;;3.35;1.38;;;14.70;59.90;;;;;;4713899;30;20392;-83
2022/02/09 12:56:45;;;;;;;7.05;1.70;;;14.70;59.20;;;;;;4696889;30;20336;-83
2022/02/09 12:59:13;;;;;;;4.60;1.70;;;14.70;59.20;;;;;;4741802;30;20034;-83
2022/02/09 13:01:48;;;;;;;3.65;1.70;;;14.70;59.40;;;;;;4741507;30;20249;-83
2022/02/09 13:04:37;;;;;;;2.58;1.27;;;14.70;59.10;;;;;;4729531;30;20052;-82
2022/02/09 13:07:12;;;;;;;7.10;1.65;;;14.60;58.60;;;;;;4730211;30;20040;-83
2022/02/09 13:09:45;;;;;;;5.20;1.52;;;14.50;59.50;;;;;;4725210;30;20044;-83
2022/02/09 13:12:11;;;;;;;5.85;1.55;;;14.50;59.60;;;;;;4730569;30;20048;-83
2022/02/09 13:14:45;;;;;;;3.25;1.23;;;14.50;59.10;;;;;;4715738;30;20115;-82
2022/02/09 14:55:27;;;;;;;11.40;1.40;;;14.00;60.00;;;;;;4735358;30;20324;-82
2022/02/09 14:57:42;;;;;;;4.43;2.00;;;13.90;60.00;;;;;;4764898;30;20052;-83
2022/02/09 15:00:14;;;;;;;7.80;1.50;;;13.90;60.50;;;;;;4729766;30;20333;-82
2022/02/09 15:08:10;;;;;;;5.60;1.42;;;13.90;60.60;;;;;;4731875;30;20036;-82
2022/02/09 15:10:44;;;;;;;4.78;1.48;;;13.80;60.80;;;;;;4747049;30;20034;-82
2022/02/09 15:16:05;;;;;;;7.18;1.95;;;13.70;61.30;;;;;;4744162;30;20394;-82
2022/02/09 15:19:04;;;;;;;5.13;1.88;;;13.70;61.50;;;;;;4757988;30;20169;-83
2022/02/09 15:24:07;;;;;;;7.18;1.58;;;13.50;61.80;;;;;;4732602;30;20268;-83
2022/02/09 15:26:34;;;;;;;5.97;2.22;;;13.50;62.20;;;;;;4757391;30;20045;-83
2022/02/09 15:29:00;;;;;;;7.80;2.05;;;13.50;62.20;;;;;;4728027;30;20370;-83
2022/02/09 15:31:42;;;;;;;11.32;2.25;;;13.40;62.20;;;;;;4713986;30;20052;-83
2022/02/09 15:34:18;;;;;;;6.38;1.83;;;13.30;62.40;;;;;;4713310;30;20272;-83
2022/02/09 15:37:00;;;;;;;7.23;1.70;;;13.30;62.40;;;;;;4715278;30;20040;-82
2022/02/09 15:39:27;;;;;;;3.75;1.67;;;13.30;62.60;;;;;;4725240;30;20291;-82
2022/02/09 15:59:13;;;;;;;5.53;1.80;;;13.00;63.90;;;;;;4742643;30;20255;-83
2022/02/09 16:09:34;;;;;;;8.82;2.03;;;12.70;64.80;;;;;;4727885;30;20103;-81
2022/02/09 16:23:14;;;;;;;4.50;1.85;;;12.50;65.70;;;;;;4724213;30;20041;-82
2022/02/09 16:34:19;;;;;;;9.18;3.08;;;12.30;66.80;;;;;;4715513;30;20333;-82
2022/02/09 16:45:00;;;;;;;7.93;2.15;;;12.10;67.60;;;;;;4680542;30;20034;-82
2022/02/09 16:50:04;;;;;;;7.38;2.17;;;12.10;68.10;;;;;;4691695;30;20037;-84
2022/02/09 16:52:42;;;;;;;9.00;2.17;;;12.10;68.40;;;;;;4706440;30;20359;-84
2022/02/09 17:21:15;;;;;;;6.32;2.28;;;11.80;70.90;;;;;;4741198;30;20037;-84
2022/02/09 17:23:42;;;;;;;6.30;2.58;;;11.80;71.00;;;;;;4726858;30;20057;-83
2022/02/09 17:26:08;;;;;;;3.85;2.00;;;11.80;71.00;;;;;;4727431;30;20128;-83
2022/02/09 17:28:34;;;;;;;6.72;2.40;;;11.80;71.10;;;;;;4726636;30;20043;-83
2022/02/09 17:31:18;;;;;;;6.18;2.40;;;11.70;71.10;;;;;;4726768;30;20120;-83
2022/02/09 17:39:06;;;;;;;7.70;3.15;;;11.60;71.90;;;;;;4750594;30;20032;-83
2022/02/09 17:58:06;;;;;;;4.93;2.95;;;11.30;73.70;;;;;;4729256;30;20070;-84
2022/02/09 18:00:32;;;;;;;8.45;2.55;;;11.30;74.20;;;;;;4725281;30;20278;-84
2022/02/09 18:02:58;;;;;;;6.47;2.30;;;11.30;74.40;;;;;;4724072;30;20056;-84
2022/02/09 18:08:02;;;;;;;5.85;2.20;;;11.20;75.10;;;;;;4760311;30;20386;-84
2022/02/09 18:10:45;;;;;;;6.80;2.28;;;11.10;75.00;;;;;;4743940;30;20048;-84
2022/02/09 18:25:16;;;;;;;5.85;2.40;;;11.00;75.90;;;;;;4744729;30;20040;-83
2022/02/09 18:29:34;;;;;;;9.45;2.70;;;11.00;76.00;;;;;;4725530;30;20051;-84
2022/02/09 19:03:40;;;;;;;4.63;2.65;;;10.40;78.50;;;;;;4713287;30;20064;-84
2022/02/09 19:06:19;;;;;;;8.80;2.65;;;10.40;79.00;;;;;;4740025;30;20045;-84
2022/02/09 19:14:21;;;;;;;5.75;2.70;;;10.20;80.10;;;;;;4719572;30;20336;-84
2022/02/09 19:17:04;;;;;;;13.13;3.35;;;10.20;80.70;;;;;;4710796;30;20340;-84
2022/02/09 19:48:43;;;;;;;8.02;3.25;;;9.60;81.50;;;;;;4728829;30;20048;-84
2022/02/09 19:51:20;;;;;;;7.82;2.92;;;9.60;81.50;;;;;;4745226;30;20087;-84
2022/02/09 19:56:27;;;;;;;7.57;3.50;;;9.50;82.20;;;;;;4730922;30;19929;-83
2022/02/09 19:59:02;;;;;;;7.47;3.47;;;9.50;82.20;;;;;;4726042;30;20358;-84
2022/02/09 20:01:35;;;;;;;10.00;3.58;;;9.50;82.20;;;;;;4723412;30;20036;-84
2022/02/09 20:04:05;;;;;;;8.05;3.78;;;9.40;82.30;;;;;;4728820;30;20029;-84
2022/02/09 20:06:32;;;;;;;10.13;4.57;;;9.40;82.60;;;;;;4727418;30;20049;-84
2022/02/09 20:08:58;;;;;;;10.13;3.50;;;9.30;82.80;;;;;;4721868;30;20066;-84
2022/02/09 20:11:24;;;;;;;14.30;3.88;;;9.30;82.80;;;;;;4725668;30;20048;-84
2022/02/09 20:13:52;;;;;;;8.60;4.37;;;9.20;83.20;;;;;;4710365;30;20279;-83
2022/02/09 20:16:20;;;;;;;10.20;3.97;;;9.10;83.00;;;;;;4738187;30;20044;-83
2022/02/09 20:18:55;;;;;;;12.43;4.43;;;9.10;82.90;;;;;;4724075;30;20056;-83
2022/02/09 20:21:24;;;;;;;7.50;4.10;;;9.00;82.80;;;;;;4741930;30;20071;-83
2022/02/09 20:23:51;;;;;;;9.57;4.03;;;8.90;83.00;;;;;;4724895;30;20055;-83
2022/02/09 20:26:18;;;;;;;11.10;4.63;;;8.80;83.20;;;;;;4713982;30;20040;-83
2022/02/09 20:28:52;;;;;;;15.48;7.38;;;8.70;83.60;;;;;;4719830;30;20037;-82
2022/02/09 20:31:23;;;;;;;13.65;6.32;;;8.50;84.10;;;;;;4740533;30;20037;-84
2022/02/09 20:33:55;;;;;;;11.23;5.90;;;8.40;84.60;;;;;;4722134;30;20059;-84
2022/02/09 20:36:21;;;;;;;13.23;6.32;;;8.30;85.10;;;;;;4723983;30;20236;-83
2022/02/09 20:38:52;;;;;;;16.88;8.05;;;8.30;85.50;;;;;;4725089;30;20033;-83
2022/02/09 20:41:19;;;;;;;19.58;8.85;;;8.20;85.90;;;;;;4712264;30;20033;-83
2022/02/09 20:43:59;;;;;;;12.35;6.70;;;8.10;86.00;;;;;;4725217;30;20047;-83
2022/02/09 20:46:30;;;;;;;17.63;7.40;;;8.10;86.00;;;;;;4725074;30;20064;-83
2022/02/09 20:48:56;;;;;;;15.13;5.88;;;8.00;86.30;;;;;;4730922;30;20120;-83
2022/02/09 20:51:22;;;;;;;13.20;5.60;;;7.90;86.50;;;;;;4714945;30;20197;-83
2022/02/09 20:53:48;;;;;;;13.02;6.32;;;7.80;86.80;;;;;;4727279;30;20045;-82
2022/02/09 20:56:14;;;;;;;10.20;5.25;;;7.70;87.10;;;;;;4738726;30;20049;-83
2022/02/09 20:58:43;;;;;;;9.45;4.15;;;7.60;87.20;;;;;;4728343;30;20737;-83
